Time;durP1;ratioP1;P1;durP2;ratioP2;P2;SDS_P1;SDS_P2;PMS_P1;PMS_P2;Temp;Humidity;BMP_temperature;BMP_pressure;BME280_temperature;BME280_humidity;BME280_pressure;Samples;Min_cycle;Max_cycle;Signal;HPM_P1;HPM_P2
2023/03/09 13:44:53;;;;;;;6.10;4.00;;;;;;;0.91;83.20;98826.30;100253;308;621769;-55
2023/03/09 13:47:36;;;;;;;7.10;4.00;;;;;;;0.79;82.78;98829.03;101594;290;95352;-56
2023/03/09 13:50:28;;;;;;;8.40;4.10;;;;;;;0.74;82.54;98832.00;101652;290;95591;-55
2023/03/09 13:53:06;;;;;;;9.60;4.80;;;;;;;0.69;82.31;98836.75;101575;290;117089;-58
2023/03/09 13:55:54;;;;;;;8.50;4.70;;;;;;;0.67;82.48;98845.61;101839;286;105562;-56
2023/03/09 13:58:39;;;;;;;7.60;4.30;;;;;;;0.73;82.43;98859.03;100803;285;1479467;-56
2023/03/09 14:01:29;;;;;;;5.90;3.50;;;;;;;0.65;81.95;98873.98;101889;285;95265;-55
2023/03/09 14:04:18;;;;;;;8.70;4.00;;;;;;;0.56;81.70;98869.25;101922;285;97328;-56
2023/03/09 14:07:08;;;;;;;7.20;3.50;;;;;;;0.57;81.70;98867.36;101885;283;117084;-56
2023/03/09 14:09:54;;;;;;;5.30;3.30;;;;;;;0.55;81.38;98862.30;102106;283;105408;-56
2023/03/09 14:12:40;;;;;;;4.80;3.20;;;;;;;0.55;81.44;98864.02;102161;283;115028;-57
2023/03/09 14:15:21;;;;;;;4.70;3.10;;;;;;;0.52;81.17;98862.52;102154;283;93167;-55
2023/03/09 14:18:03;;;;;;;5.30;3.20;;;;;;;0.50;81.26;98873.70;102093;283;99599;-54
2023/03/09 14:20:41;;;;;;;5.20;3.30;;;;;;;0.49;81.21;98871.98;102090;283;118139;-55
2023/03/09 14:23:41;;;;;;;6.70;3.40;;;;;;;0.49;81.30;98878.56;102078;283;105459;-59
2023/03/09 14:26:27;;;;;;;6.80;3.70;;;;;;;0.46;81.30;98885.10;102117;283;114371;-58
2023/03/09 14:29:27;;;;;;;6.50;3.60;;;;;;;0.50;81.37;98879.37;102106;283;93920;-58
2023/03/09 14:32:29;;;;;;;6.80;3.90;;;;;;;0.54;81.44;98881.00;102567;278;97363;-57
2023/03/09 14:35:31;;;;;;;7.30;4.00;;;;;;;0.55;81.33;98884.11;102564;278;116604;-55
2023/03/09 14:38:22;;;;;;;8.70;4.60;;;;;;;0.52;81.18;98887.03;102493;278;105591;-55
2023/03/09 14:41:20;;;;;;;8.20;4.30;;;;;;;0.50;81.07;98886.73;102538;278;114470;-54
2023/03/09 14:43:59;;;;;;;7.50;4.40;;;;;;;0.46;81.14;98890.94;102546;278;94882;-54
2023/03/09 14:46:43;;;;;;;7.00;4.30;;;;;;;0.44;81.16;98893.02;102577;278;98278;-53
2023/03/09 14:49:25;;;;;;;9.60;5.40;;;;;;;0.47;81.10;98895.98;102530;278;118329;-59
2023/03/09 14:52:04;;;;;;;8.80;5.00;;;;;;;0.48;81.12;98902.40;102556;270;105053;-58
2023/03/09 14:54:43;;;;;;;8.60;4.30;;;;;;;0.50;81.17;98909.58;102506;278;114006;-59
2023/03/09 14:57:26;;;;;;;10.20;5.70;;;;;;;0.53;81.15;98912.12;102501;278;92946;-59
2023/03/09 15:00:06;;;;;;;8.40;4.80;;;;;;;0.57;81.10;98918.96;102522;278;97027;-59
2023/03/09 15:02:44;;;;;;;10.90;4.80;;;;;;;0.54;81.01;98922.95;102532;278;118151;-58
2023/03/09 15:05:21;;;;;;;8.20;5.00;;;;;;;0.49;80.85;98925.62;102550;278;105434;-59
2023/03/09 15:07:56;;;;;;;11.80;5.90;;;;;;;0.47;80.91;98935.27;102533;278;113790;-55
2023/03/09 15:10:32;;;;;;;7.40;4.60;;;;;;;0.47;80.88;98931.02;102543;278;94541;-55
2023/03/09 15:13:12;;;;;;;8.70;5.40;;;;;;;0.45;80.90;98931.05;102535;278;97659;-53
2023/03/09 15:15:55;;;;;;;9.60;5.50;;;;;;;0.41;80.91;98930.44;102530;278;118107;-54
2023/03/09 15:18:39;;;;;;;12.40;6.10;;;;;;;0.43;80.90;98927.33;102507;278;105931;-54
2023/03/09 15:21:16;;;;;;;16.70;8.40;;;;;;;0.47;80.91;98929.43;102501;278;115077;-55
2023/03/09 15:24:01;;;;;;;12.70;7.30;;;;;;;0.48;80.96;98932.80;102516;278;94210;-55
2023/03/09 15:26:46;;;;;;;14.10;7.70;;;;;;;0.50;80.98;98935.48;102530;278;97782;-54
2023/03/09 15:29:26;;;;;;;10.40;6.70;;;;;;;0.50;80.91;98942.36;102537;278;117097;-59
2023/03/09 15:32:07;;;;;;;8.30;6.40;;;;;;;0.46;80.83;98946.83;102485;278;104911;-58
2023/03/09 15:34:47;;;;;;;12.00;7.30;;;;;;;0.45;80.82;98953.23;102553;278;114720;-60
2023/03/09 15:37:24;;;;;;;9.10;6.00;;;;;;;0.42;80.81;98952.09;102496;278;94648;-59
2023/03/09 15:40:04;;;;;;;10.30;6.70;;;;;;;0.42;80.79;98952.09;102552;278;97574;-59
2023/03/09 15:42:47;;;;;;;10.20;6.30;;;;;;;0.41;80.96;98950.02;102509;278;118198;-58
2023/03/09 15:45:25;;;;;;;10.50;7.00;;;;;;;0.39;80.91;98958.23;102545;278;104648;-54
2023/03/09 15:48:00;;;;;;;10.10;6.40;;;;;;;0.47;80.93;98963.64;102515;278;114029;-55
2023/03/09 15:50:38;;;;;;;9.70;6.40;;;;;;;0.45;80.81;98966.61;102591;278;93257;-59
2023/03/09 15:53:18;;;;;;;10.90;6.80;;;;;;;0.44;80.68;98972.25;102576;278;98236;-60
2023/03/09 15:56:03;;;;;;;11.40;6.90;;;;;;;0.46;80.67;98973.06;102549;278;119509;-60
2023/03/09 15:58:37;;;;;;;;;;;;;;;0.46;80.65;98972.60;102587;278;105961;-54
2023/03/09 16:01:20;;;;;;;12.80;8.20;;;;;;;0.42;80.63;98974.38;102545;278;113621;-54
2023/03/09 16:04:01;;;;;;;14.40;7.60;;;;;;;0.41;80.60;98973.97;102534;278;95263;-55
2023/03/09 16:06:36;;;;;;;14.30;8.00;;;;;;;0.39;80.57;98974.23;102570;278;97805;-55
2023/03/09 16:09:16;;;;;;;10.70;7.10;;;;;;;0.42;80.49;98980.91;102570;278;118121;-57
2023/03/09 16:11:53;;;;;;;13.90;7.70;;;;;;;0.42;80.50;98992.61;102576;278;106027;-59
2023/03/09 16:14:28;;;;;;;15.30;7.00;;;;;;;0.38;80.39;99004.23;102585;278;113925;-59
2023/03/09 16:17:10;;;;;;;10.80;7.20;;;;;;;0.36;80.33;99012.52;102570;278;92237;-57
2023/03/09 16:19:50;;;;;;;9.60;6.70;;;;;;;0.31;80.27;99011.67;102604;278;97640;-54
2023/03/09 16:22:25;;;;;;;10.80;7.10;;;;;;;0.28;80.18;99011.98;102526;278;118310;-53
2023/03/09 16:25:00;;;;;;;;;;;;;;;0.23;79.96;99011.60;102544;278;105616;-58
2023/03/09 16:27:37;;;;;;;8.50;4.90;;;;;;;0.20;79.96;99015.47;102559;278;113881;-59
2023/03/09 16:30:17;;;;;;;10.60;6.50;;;;;;;0.24;79.78;99020.80;102581;278;94047;-52
2023/03/09 16:32:54;;;;;;;7.60;5.40;;;;;;;0.27;79.74;99031.96;102582;266;98127;-57
2023/03/09 16:35:39;;;;;;;10.10;5.40;;;;;;;0.24;79.50;99031.90;102536;278;119376;-59
2023/03/09 16:38:15;;;;;;;9.60;6.10;;;;;;;0.23;79.34;99042.10;102596;278;105558;-58
2023/03/09 16:40:51;;;;;;;10.10;5.50;;;;;;;0.18;79.37;99047.19;102560;278;114136;-60
2023/03/09 16:43:31;;;;;;;10.90;5.20;;;;;;;0.14;79.12;99054.95;102548;278;94182;-58
2023/03/09 16:46:18;;;;;;;9.40;5.20;;;;;;;0.10;79.30;99068.70;102577;278;95441;-59
2023/03/09 16:48:57;;;;;;;10.90;5.20;;;;;;;0.12;79.27;99070.10;102612;278;117845;-60
2023/03/09 16:51:34;;;;;;;14.30;9.70;;;;;;;0.16;79.16;99066.35;102572;278;104284;-60
2023/03/09 16:54:17;;;;;;;13.00;7.50;;;;;;;0.18;79.23;99065.64;102614;278;115063;-59
2023/03/09 16:56:58;;;;;;;10.50;6.60;;;;;;;0.19;79.19;99059.14;102572;278;92395;-57
2023/03/09 16:59:36;;;;;;;11.20;7.40;;;;;;;0.20;79.07;99064.32;102564;278;95555;-60
2023/03/09 17:02:12;;;;;;;9.10;6.10;;;;;;;0.22;78.86;99078.50;102515;278;118657;-60
2023/03/09 17:04:52;;;;;;;12.30;7.80;;;;;;;0.22;78.78;99087.13;102537;278;103604;-55
2023/03/09 17:07:40;;;;;;;10.60;6.80;;;;;;;0.24;78.63;99088.20;102503;278;114457;-55
2023/03/09 17:10:20;;;;;;;19.60;13.00;;;;;;;0.16;78.68;99085.14;102487;278;91851;-60
2023/03/09 17:13:01;;;;;;;19.60;12.70;;;;;;;0.14;78.65;99081.83;102553;278;95853;-55
2023/03/09 17:15:40;;;;;;;17.30;10.60;;;;;;;0.10;78.49;99082.73;102526;278;118506;-54
2023/03/09 17:18:17;;;;;;;11.00;6.30;;;;;;;0.10;78.58;99085.74;102536;278;106198;-59
2023/03/09 17:20:53;;;;;;;14.80;7.70;;;;;;;0.07;78.05;99088.36;102532;278;115346;-59
2023/03/09 17:23:33;;;;;;;11.90;7.30;;;;;;;0.06;78.22;99090.77;102522;278;93560;-59
2023/03/09 17:26:09;;;;;;;9.80;6.10;;;;;;;0.11;77.97;99089.34;102544;278;96903;-60
2023/03/09 17:28:46;;;;;;;7.00;4.80;;;;;;;0.16;77.69;99095.09;102488;278;116911;-59
2023/03/09 17:31:23;;;;;;;8.50;4.90;;;;;;;0.19;77.60;99096.98;102524;278;105008;-58
2023/03/09 17:34:04;;;;;;;8.30;4.90;;;;;;;0.17;77.52;99099.90;102401;279;113293;-61
2023/03/09 17:36:45;;;;;;;8.40;4.80;;;;;;;0.10;77.12;99103.80;102518;278;92154;-61
2023/03/09 17:39:21;;;;;;;8.00;4.50;;;;;;;0.08;76.80;99113.33;102516;278;97579;-55
2023/03/09 17:41:57;;;;;;;9.00;4.60;;;;;;;0.06;76.77;99108.33;102528;278;117432;-54
2023/03/09 17:44:33;;;;;;;8.40;5.50;;;;;;;0.05;76.65;99113.19;102567;278;106128;-58
2023/03/09 17:47:08;;;;;;;10.60;5.70;;;;;;;0.01;76.53;99114.27;102517;278;113185;-58
2023/03/09 17:49:45;;;;;;;10.50;6.10;;;;;;;-0.01;76.66;99110.92;102534;278;93361;-52
2023/03/09 17:52:26;;;;;;;9.70;5.00;;;;;;;-0.02;76.52;99099.66;102560;278;97759;-55
2023/03/09 17:55:06;;;;;;;10.80;6.00;;;;;;;-0.06;76.25;99090.35;102532;278;117194;-59
2023/03/09 17:57:46;;;;;;;9.70;5.70;;;;;;;-0.07;76.29;99091.87;102555;278;105941;-53
2023/03/09 18:00:23;;;;;;;8.50;5.30;;;;;;;-0.05;76.24;99097.55;102492;278;114634;-60
2023/03/09 18:03:07;;;;;;;7.90;4.40;;;;;;;-0.03;76.36;99091.27;102519;278;96004;-58
2023/03/09 18:05:42;;;;;;;6.30;3.80;;;;;;;-0.00;76.07;99079.19;102571;266;97284;-60
2023/03/09 18:08:20;;;;;;;8.30;3.90;;;;;;;0.02;76.01;99072.92;102536;278;119553;-57
2023/03/09 18:10:57;;;;;;;6.70;3.50;;;;;;;0.04;76.04;99076.24;102560;278;105803;-57
2023/03/09 18:13:35;;;;;;;7.80;4.50;;;;;;;0.05;76.05;99080.60;102506;278;112893;-56
2023/03/09 18:16:15;;;;;;;7.40;4.20;;;;;;;0.07;76.10;99084.30;102465;278;93889;-56
2023/03/09 18:18:57;;;;;;;5.60;3.00;;;;;;;0.07;75.88;99085.86;102556;278;98550;-59
2023/03/09 18:21:31;;;;;;;6.40;4.30;;;;;;;0.03;75.18;99086.80;102545;278;119130;-60
2023/03/09 18:24:10;;;;;;;8.60;5.60;;;;;;;0.02;75.21;99089.05;102535;278;104295;-56
2023/03/09 18:26:50;;;;;;;8.70;4.90;;;;;;;-0.01;75.11;99087.92;102504;278;114525;-56
2023/03/09 18:29:35;;;;;;;7.10;4.00;;;;;;;-0.03;74.89;99083.45;102495;278;90950;-54
2023/03/09 18:32:12;;;;;;;8.20;4.20;;;;;;;-0.05;74.90;99089.70;102485;278;95554;-54
2023/03/09 18:34:50;;;;;;;6.80;4.00;;;;;;;-0.07;74.55;99100.86;102483;278;119698;-60
2023/03/09 18:37:32;;;;;;;8.40;4.70;;;;;;;-0.09;74.41;99105.48;102533;278;105593;-60
2023/03/09 18:40:09;;;;;;;8.50;4.50;;;;;;;-0.08;74.17;99120.16;102517;278;111450;-56
2023/03/09 18:42:52;;;;;;;7.30;4.50;;;;;;;-0.06;73.93;99120.30;102521;278;92019;-56
2023/03/09 18:45:39;;;;;;;8.30;4.50;;;;;;;-0.04;74.16;99118.08;102502;278;96963;-60
2023/03/09 18:48:21;;;;;;;4.80;3.30;;;;;;;-0.02;74.17;99118.78;102536;278;121248;-55
2023/03/09 18:51:01;;;;;;;6.60;3.60;;;;;;;0.01;74.07;99137.45;102526;278;105883;-53
2023/03/09 18:53:37;;;;;;;13.40;5.90;;;;;;;0.03;73.78;99140.12;102546;278;113749;-56
2023/03/09 18:56:18;;;;;;;6.10;4.40;;;;;;;0.03;74.05;99135.80;102512;278;92893;-57
2023/03/09 18:58:55;;;;;;;7.10;3.80;;;;;;;0.03;73.72;99137.30;102487;278;97914;-54
2023/03/09 19:01:35;;;;;;;6.50;3.80;;;;;;;0.01;73.57;99142.56;102527;278;119103;-54
2023/03/09 19:04:16;;;;;;;8.10;4.20;;;;;;;-0.00;73.77;99146.05;102509;278;105471;-57
2023/03/09 19:07:05;;;;;;;8.50;5.10;;;;;;;-0.02;73.75;99144.44;102528;278;114780;-58
2023/03/09 19:09:45;;;;;;;32.00;18.10;;;;;;;-0.04;73.73;99145.54;102517;278;93595;-57
2023/03/09 19:12:26;;;;;;;14.50;8.60;;;;;;;-0.06;73.70;99142.58;102494;278;97238;-60
2023/03/09 19:15:02;;;;;;;9.50;5.50;;;;;;;-0.10;73.44;99134.09;102560;278;119770;-60
2023/03/09 19:17:43;;;;;;;9.20;6.00;;;;;;;-0.14;72.95;99126.21;102503;278;105252;-60
2023/03/09 19:20:19;;;;;;;8.70;4.80;;;;;;;-0.16;73.11;99127.48;102486;278;112705;-60
2023/03/09 19:22:53;;;;;;;7.10;3.50;;;;;;;-0.16;72.50;99129.21;102512;278;94457;-58
2023/03/09 19:25:31;;;;;;;6.80;3.70;;;;;;;-0.11;71.70;99130.36;102533;278;96802;-59
2023/03/09 19:28:10;;;;;;;8.20;3.90;;;;;;;-0.07;71.87;99131.35;102563;278;117980;-58
2023/03/09 19:30:47;;;;;;;7.90;4.50;;;;;;;-0.04;72.30;99129.59;102502;278;105932;-59
2023/03/09 19:33:23;;;;;;;8.70;4.10;;;;;;;-0.02;72.37;99126.38;102547;267;113960;-55
2023/03/09 19:36:04;;;;;;;9.40;4.80;;;;;;;-0.01;71.96;99133.79;102438;278;92181;-55
2023/03/09 19:38:42;;;;;;;6.90;3.80;;;;;;;-0.02;71.34;99138.42;102559;278;96413;-59
2023/03/09 19:41:23;;;;;;;7.60;4.40;;;;;;;-0.04;71.59;99134.40;102543;278;119721;-60
2023/03/09 19:44:01;;;;;;;7.40;3.40;;;;;;;-0.05;71.17;99140.70;102493;278;105822;-55
2023/03/09 19:46:40;;;;;;;6.50;3.70;;;;;;;-0.04;71.40;99142.05;102554;278;114514;-55
2023/03/09 19:49:21;;;;;;;6.60;4.10;;;;;;;-0.06;71.31;99137.77;102559;278;93628;-57
2023/03/09 19:52:11;;;;;;;6.60;3.40;;;;;;;-0.08;71.30;99131.24;102573;278;97426;-57
2023/03/09 19:54:52;;;;;;;6.00;3.20;;;;;;;-0.08;71.48;99141.65;102566;278;117836;-55
2023/03/09 19:57:30;;;;;;;5.40;3.00;;;;;;;-0.10;71.48;99141.51;102544;278;103952;-55
2023/03/09 20:00:04;;;;;;;7.40;3.90;;;;;;;-0.10;71.10;99138.85;102526;278;113280;-54
2023/03/09 20:02:40;;;;;;;6.20;3.60;;;;;;;-0.10;71.14;99147.21;102561;278;91798;-54
2023/03/09 20:05:15;;;;;;;8.30;3.70;;;;;;;-0.10;71.10;99160.16;102594;278;96304;-58
2023/03/09 20:07:56;;;;;;;7.50;4.90;;;;;;;-0.11;71.02;99171.00;102544;278;119839;-54
2023/03/09 20:10:31;;;;;;;6.50;3.90;;;;;;;-0.11;70.47;99169.27;102544;278;103408;-53
2023/03/09 20:13:11;;;;;;;8.90;4.40;;;;;;;-0.11;70.76;99173.52;102608;278;111973;-54
2023/03/09 20:15:52;;;;;;;5.60;3.50;;;;;;;-0.12;70.92;99167.38;102534;278;93384;-55
2023/03/09 20:18:28;;;;;;;6.20;3.10;;;;;;;-0.13;70.81;99157.77;102611;278;96620;-55
2023/03/09 20:21:11;;;;;;;5.50;3.20;;;;;;;-0.12;71.02;99153.46;102571;278;119666;-56
2023/03/09 20:23:53;;;;;;;7.80;3.90;;;;;;;-0.13;71.04;99147.52;102585;278;104948;-59
2023/03/09 20:26:33;;;;;;;9.30;4.40;;;;;;;-0.13;71.12;99135.68;102547;278;114156;-59
2023/03/09 20:29:23;;;;;;;8.40;4.30;;;;;;;-0.15;71.07;99136.53;102546;278;92646;-53
2023/03/09 20:32:03;;;;;;;9.00;4.70;;;;;;;-0.15;71.09;99146.14;102515;278;98538;-54
2023/03/09 20:34:38;;;;;;;7.50;4.50;;;;;;;-0.15;71.22;99148.12;102546;278;119300;-53
2023/03/09 20:37:21;;;;;;;9.60;4.70;;;;;;;-0.16;71.01;99148.33;102563;278;105717;-53
2023/03/09 20:40:02;;;;;;;9.30;4.60;;;;;;;-0.14;71.24;99141.99;102595;278;114083;-59
2023/03/09 20:42:37;;;;;;;9.10;4.60;;;;;;;-0.10;71.22;99134.84;102591;278;92174;-58
2023/03/09 20:45:14;;;;;;;9.50;4.40;;;;;;;-0.04;71.40;99135.85;102568;278;95184;-55
2023/03/09 20:47:59;;;;;;;8.60;4.50;;;;;;;-0.02;71.40;99132.91;102606;278;120489;-54
2023/03/09 20:50:40;;;;;;;7.30;3.90;;;;;;;0.01;71.44;99144.92;102574;278;103235;-54
2023/03/09 20:53:16;;;;;;;7.80;4.50;;;;;;;0.00;71.37;99141.03;102544;278;113178;-59
2023/03/09 20:55:58;;;;;;;8.60;4.60;;;;;;;0.01;71.41;99136.52;102540;278;95610;-60
2023/03/09 20:58:35;;;;;;;10.70;5.60;;;;;;;0.01;71.42;99129.65;102568;278;97482;-60
2023/03/09 21:01:15;;;;;;;9.00;4.90;;;;;;;0.01;71.35;99127.50;102541;278;118099;-60
2023/03/09 21:03:51;;;;;;;12.40;6.40;;;;;;;-0.01;71.50;99124.89;102563;266;105855;-59
2023/03/09 21:06:26;;;;;;;9.00;5.40;;;;;;;-0.02;71.60;99128.90;102523;278;115337;-62
2023/03/09 21:09:07;;;;;;;11.30;5.60;;;;;;;-0.04;71.73;99120.25;102529;278;92750;-57
2023/03/09 21:11:48;;;;;;;10.20;5.30;;;;;;;-0.05;71.78;99115.43;102531;278;97212;-61
2023/03/09 21:14:24;;;;;;;8.90;4.40;;;;;;;-0.06;72.00;99118.30;102530;278;119834;-61
2023/03/09 21:16:58;;;;;;;9.10;4.80;;;;;;;-0.04;72.27;99121.82;102504;278;104844;-60
2023/03/09 21:19:36;;;;;;;8.50;5.20;;;;;;;-0.00;72.56;99116.68;102525;278;113293;-55
2023/03/09 21:22:13;;;;;;;9.90;5.60;;;;;;;0.03;72.96;99108.52;102536;278;94267;-53
2023/03/09 21:24:54;;;;;;;9.60;5.90;;;;;;;0.07;73.22;99109.56;102558;278;97427;-59
2023/03/09 21:27:42;;;;;;;9.30;5.20;;;;;;;0.11;73.53;99109.70;102522;278;120498;-59
2023/03/09 21:30:22;;;;;;;13.90;6.20;;;;;;;0.14;73.78;99114.20;102560;278;105185;-62
2023/03/09 21:32:58;;;;;;;11.60;5.70;;;;;;;0.15;74.11;99126.25;102511;278;114078;-54
2023/03/09 21:35:32;;;;;;;12.70;6.90;;;;;;;0.13;74.32;99126.42;102513;278;96279;-54
2023/03/09 21:38:12;;;;;;;11.70;6.80;;;;;;;0.08;74.53;99117.96;102546;278;98470;-58
2023/03/09 21:40:58;;;;;;;8.60;6.10;;;;;;;0.08;74.82;99116.40;102492;278;119959;-59
2023/03/09 21:43:42;;;;;;;12.80;7.40;;;;;;;0.09;74.97;99115.61;102553;278;105731;-54
2023/03/09 21:46:20;;;;;;;11.60;7.00;;;;;;;0.13;75.16;99108.64;102509;278;112956;-53
2023/03/09 21:48:57;;;;;;;10.00;6.50;;;;;;;0.15;75.54;99110.58;102526;278;93123;-58
2023/03/09 21:51:36;;;;;;;9.00;5.30;;;;;;;0.16;75.54;99113.52;102516;278;97830;-59
2023/03/09 21:54:14;;;;;;;9.40;5.30;;;;;;;0.15;75.74;99116.42;102554;278;119665;-55
2023/03/09 21:56:52;;;;;;;13.60;6.20;;;;;;;0.15;75.84;99110.33;102510;278;105050;-55
2023/03/09 21:59:30;;;;;;;9.80;6.40;;;;;;;0.15;75.87;99107.30;101937;278;766280;-54
2023/03/09 22:02:17;;;;;;;10.50;5.30;;;;;;;0.16;75.86;99108.36;102504;278;95571;-54
2023/03/09 22:05:03;;;;;;;10.40;5.80;;;;;;;0.15;76.00;99109.69;102401;279;98002;-53
2023/03/09 22:07:40;;;;;;;13.50;6.10;;;;;;;0.17;76.07;99109.41;102500;278;120331;-59
2023/03/09 22:10:17;;;;;;;11.30;5.90;;;;;;;0.20;76.08;99109.16;102542;278;106586;-54
2023/03/09 22:12:56;;;;;;;10.40;5.60;;;;;;;0.21;76.08;99101.19;102514;278;114192;-56
2023/03/09 22:15:34;;;;;;;10.70;6.20;;;;;;;0.20;76.16;99096.21;102511;278;93751;-55
2023/03/09 22:18:09;;;;;;;10.70;5.40;;;;;;;0.20;76.04;99098.55;102577;278;97035;-59
2023/03/09 22:20:45;;;;;;;9.80;5.40;;;;;;;0.14;75.99;99090.95;102524;278;118877;-57
2023/03/09 22:23:20;;;;;;;9.10;5.60;;;;;;;0.15;75.96;99092.50;102489;278;103534;-60
2023/03/09 22:26:00;;;;;;;10.40;5.30;;;;;;;0.12;75.97;99088.70;102471;294;113146;-60
2023/03/09 22:28:39;;;;;;;10.40;5.50;;;;;;;0.12;75.94;99087.30;102505;278;95363;-59
2023/03/09 22:31:17;;;;;;;10.80;5.30;;;;;;;0.15;75.94;99080.61;102540;278;98223;-58
2023/03/09 22:34:03;;;;;;;8.90;5.00;;;;;;;0.14;75.97;99076.69;102547;278;119311;-54
2023/03/09 22:36:41;;;;;;;8.60;4.50;;;;;;;0.18;75.89;99075.70;102501;278;105761;-54
2023/03/09 22:39:17;;;;;;;10.40;6.10;;;;;;;0.16;75.80;99070.46;102540;278;115236;-57
2023/03/09 22:41:55;;;;;;;10.00;5.10;;;;;;;0.09;75.55;99066.55;102503;278;94427;-56
2023/03/09 22:44:36;;;;;;;10.70;6.30;;;;;;;0.08;75.59;99064.17;102533;278;97313;-55
2023/03/09 22:47:21;;;;;;;10.10;6.30;;;;;;;0.07;75.64;99060.75;102527;278;119704;-55
2023/03/09 22:50:01;;;;;;;8.00;5.00;;;;;;;0.01;75.60;99057.48;102539;278;105656;-59
2023/03/09 22:52:37;;;;;;;11.00;5.80;;;;;;;-0.01;75.77;99051.44;102552;278;114416;-60
2023/03/09 22:55:14;;;;;;;9.70;5.60;;;;;;;0.01;75.80;99046.80;102519;278;95124;-56
2023/03/09 22:57:49;;;;;;;8.20;4.80;;;;;;;0.02;75.87;99046.72;102484;278;98070;-57
2023/03/09 23:00:34;;;;;;;10.90;6.70;;;;;;;0.03;75.96;99045.25;102504;278;119440;-55
2023/03/09 23:03:13;;;;;;;8.80;5.30;;;;;;;0.07;76.00;99035.77;102556;278;105084;-57
2023/03/09 23:05:53;;;;;;;12.00;5.70;;;;;;;0.07;75.97;99035.31;102531;278;113495;-57
2023/03/09 23:08:36;;;;;;;10.80;7.10;;;;;;;0.03;76.00;99033.90;102551;278;93017;-59
2023/03/09 23:11:18;;;;;;;12.70;6.30;;;;;;;-0.01;76.30;99029.64;102521;278;97177;-60
2023/03/09 23:13:55;;;;;;;10.40;6.10;;;;;;;-0.05;76.26;99023.51;102559;278;119454;-59
2023/03/09 23:16:31;;;;;;;10.10;6.60;;;;;;;-0.07;76.46;99023.89;102540;278;105241;-59
2023/03/09 23:19:11;;;;;;;10.40;5.70;;;;;;;-0.07;76.44;99023.29;102487;278;114350;-55
2023/03/09 23:21:46;;;;;;;12.40;6.90;;;;;;;-0.05;76.45;99022.55;102513;278;95982;-55
2023/03/09 23:24:25;;;;;;;13.10;6.00;;;;;;;-0.02;76.68;99019.70;102523;278;97554;-56
2023/03/09 23:27:01;;;;;;;9.40;5.70;;;;;;;-0.03;76.75;99014.34;102544;278;119797;-56
2023/03/09 23:29:38;;;;;;;9.80;5.60;;;;;;;0.00;76.90;99017.86;102508;278;105425;-61
2023/03/09 23:32:25;;;;;;;9.00;5.70;;;;;;;0.05;76.85;99020.84;102553;278;113071;-61
2023/03/09 23:35:03;;;;;;;11.40;6.50;;;;;;;0.07;76.78;99012.59;102555;278;92492;-61
2023/03/09 23:37:43;;;;;;;10.60;5.80;;;;;;;0.07;76.88;99011.50;102525;278;98907;-59
2023/03/09 23:40:22;;;;;;;9.90;6.10;;;;;;;0.00;76.95;99006.56;102512;278;119792;-55
2023/03/09 23:43:01;;;;;;;9.90;5.70;;;;;;;-0.02;77.20;99000.38;102509;278;104868;-58
2023/03/09 23:45:42;;;;;;;10.70;5.80;;;;;;;-0.02;77.16;99004.15;102516;278;112815;-58
2023/03/09 23:48:20;;;;;;;11.60;6.90;;;;;;;-0.05;77.61;99008.14;102538;278;95185;-57
2023/03/09 23:50:59;;;;;;;12.20;5.80;;;;;;;-0.01;77.75;99009.17;102565;278;96427;-56
2023/03/09 23:53:43;;;;;;;11.10;6.00;;;;;;;0.01;77.80;99011.50;102577;278;118308;-55
2023/03/09 23:56:21;;;;;;;9.20;6.20;;;;;;;0.01;78.16;99011.09;102570;278;104914;-55
2023/03/09 23:58:57;;;;;;;11.60;7.10;;;;;;;-0.02;78.30;99002.89;102537;278;113409;-59
